sensor_id;sensor_type;location;lat;lon;timestamp;temperature;humidity
4596;DHT22;2310;49.978;8.742;2023-08-17T00:00:41;21.70;99.90
4596;DHT22;2310;49.978;8.742;2023-08-17T00:04:42;21.80;99.90
4596;DHT22;2310;49.978;8.742;2023-08-17T00:08:44;21.70;99.90
4596;DHT22;2310;49.978;8.742;2023-08-17T00:12:47;21.70;99.90
4596;DHT22;2310;49.978;8.742;2023-08-17T00:16:51;21.70;99.90
4596;DHT22;2310;49.978;8.742;2023-08-17T00:20:53;21.80;99.90
4596;DHT22;2310;49.978;8.742;2023-08-17T00:24:56;21.70;99.90
4596;DHT22;2310;49.978;8.742;2023-08-17T00:28:59;21.70;99.90
4596;DHT22;2310;49.978;8.742;2023-08-17T00:33:02;21.70;99.90
4596;DHT22;2310;49.978;8.742;2023-08-17T00:37:04;21.60;99.90
4596;DHT22;2310;49.978;8.742;2023-08-17T00:41:06;21.60;99.90
4596;DHT22;2310;49.978;8.742;2023-08-17T00:45:07;21.60;99.90
4596;DHT22;2310;49.978;8.742;2023-08-17T00:49:10;21.60;99.90
4596;DHT22;2310;49.978;8.742;2023-08-17T00:53:11;21.60;99.90
4596;DHT22;2310;49.978;8.742;2023-08-17T00:57:14;21.60;99.90
4596;DHT22;2310;49.978;8.742;2023-08-17T01:01:16;21.50;99.90
4596;DHT22;2310;49.978;8.742;2023-08-17T01:05:17;21.50;99.90
4596;DHT22;2310;49.978;8.742;2023-08-17T01:09:19;21.40;99.90
4596;DHT22;2310;49.978;8.742;2023-08-17T01:13:24;21.40;99.90
4596;DHT22;2310;49.978;8.742;2023-08-17T01:17:37;21.40;99.90
4596;DHT22;2310;49.978;8.742;2023-08-17T01:21:42;21.30;99.90
4596;DHT22;2310;49.978;8.742;2023-08-17T01:25:45;21.20;99.90
4596;DHT22;2310;49.978;8.742;2023-08-17T01:29:46;21.30;99.90
4596;DHT22;2310;49.978;8.742;2023-08-17T01:33:52;21.40;99.90
4596;DHT22;2310;49.978;8.742;2023-08-17T01:37:56;21.40;99.90
4596;DHT22;2310;49.978;8.742;2023-08-17T01:41:58;21.50;99.90
4596;DHT22;2310;49.978;8.742;2023-08-17T01:46:01;21.50;99.90
4596;DHT22;2310;49.978;8.742;2023-08-17T01:50:03;21.50;99.90
4596;DHT22;2310;49.978;8.742;2023-08-17T01:54:05;21.40;99.90
4596;DHT22;2310;49.978;8.742;2023-08-17T01:58:06;21.30;99.90
4596;DHT22;2310;49.978;8.742;2023-08-17T02:02:07;21.30;99.90
4596;DHT22;2310;49.978;8.742;2023-08-17T02:06:09;21.20;99.90
4596;DHT22;2310;49.978;8.742;2023-08-17T02:10:10;21.20;99.90
4596;DHT22;2310;49.978;8.742;2023-08-17T02:14:12;21.10;99.90
4596;DHT22;2310;49.978;8.742;2023-08-17T02:18:13;21.20;99.90
4596;DHT22;2310;49.978;8.742;2023-08-17T02:22:15;21.10;99.90
4596;DHT22;2310;49.978;8.742;2023-08-17T02:26:16;21.10;99.90
4596;DHT22;2310;49.978;8.742;2023-08-17T02:30:18;21.10;99.90
4596;DHT22;2310;49.978;8.742;2023-08-17T02:34:19;21.10;99.90
4596;DHT22;2310;49.978;8.742;2023-08-17T02:38:20;21.10;99.90
4596;DHT22;2310;49.978;8.742;2023-08-17T02:42:22;21.10;99.90
4596;DHT22;2310;49.978;8.742;2023-08-17T02:46:23;21.30;99.90
4596;DHT22;2310;49.978;8.742;2023-08-17T02:50:24;21.20;99.90
4596;DHT22;2310;49.978;8.742;2023-08-17T02:54:26;21.00;99.90
4596;DHT22;2310;49.978;8.742;2023-08-17T02:58:27;21.00;99.90
4596;DHT22;2310;49.978;8.742;2023-08-17T03:02:29;21.00;99.90
4596;DHT22;2310;49.978;8.742;2023-08-17T03:06:32;20.90;99.90
4596;DHT22;2310;49.978;8.742;2023-08-17T03:10:33;21.00;99.90
4596;DHT22;2310;49.978;8.742;2023-08-17T03:14:35;20.90;99.90
4596;DHT22;2310;49.978;8.742;2023-08-17T03:18:36;20.90;99.90
4596;DHT22;2310;49.978;8.742;2023-08-17T03:22:38;20.90;99.90
4596;DHT22;2310;49.978;8.742;2023-08-17T03:26:39;21.10;99.90
4596;DHT22;2310;49.978;8.742;2023-08-17T03:30:40;21.10;99.90
4596;DHT22;2310;49.978;8.742;2023-08-17T03:34:41;21.10;99.90
4596;DHT22;2310;49.978;8.742;2023-08-17T03:38:43;21.00;99.90
4596;DHT22;2310;49.978;8.742;2023-08-17T03:42:44;20.90;99.90
4596;DHT22;2310;49.978;8.742;2023-08-17T03:46:45;21.00;99.90
4596;DHT22;2310;49.978;8.742;2023-08-17T03:50:47;20.90;99.90
4596;DHT22;2310;49.978;8.742;2023-08-17T03:54:48;21.00;99.90
4596;DHT22;2310;49.978;8.742;2023-08-17T03:58:50;21.00;99.90
4596;DHT22;2310;49.978;8.742;2023-08-17T04:02:51;21.10;99.90
4596;DHT22;2310;49.978;8.742;2023-08-17T04:06:52;21.10;99.90
4596;DHT22;2310;49.978;8.742;2023-08-17T04:10:54;21.10;99.90
4596;DHT22;2310;49.978;8.742;2023-08-17T04:14:55;21.00;99.90
4596;DHT22;2310;49.978;8.742;2023-08-17T04:18:56;21.10;99.90
4596;DHT22;2310;49.978;8.742;2023-08-17T04:22:58;21.00;99.90
4596;DHT22;2310;49.978;8.742;2023-08-17T04:26:59;20.90;99.90
4596;DHT22;2310;49.978;8.742;2023-08-17T04:31:01;20.90;99.90
4596;DHT22;2310;49.978;8.742;2023-08-17T04:35:02;20.90;99.90
4596;DHT22;2310;49.978;8.742;2023-08-17T04:39:04;20.80;99.90
4596;DHT22;2310;49.978;8.742;2023-08-17T04:43:05;20.90;99.90
4596;DHT22;2310;49.978;8.742;2023-08-17T04:47:06;20.90;99.90
4596;DHT22;2310;49.978;8.742;2023-08-17T04:51:08;21.00;99.90
4596;DHT22;2310;49.978;8.742;2023-08-17T04:55:10;21.10;99.90
4596;DHT22;2310;49.978;8.742;2023-08-17T04:59:12;21.20;99.90
4596;DHT22;2310;49.978;8.742;2023-08-17T05:03:13;21.10;99.90
4596;DHT22;2310;49.978;8.742;2023-08-17T05:07:16;21.10;99.90
4596;DHT22;2310;49.978;8.742;2023-08-17T05:11:17;21.10;99.90
4596;DHT22;2310;49.978;8.742;2023-08-17T05:15:19;21.20;99.90
4596;DHT22;2310;49.978;8.742;2023-08-17T05:19:20;21.20;99.90
4596;DHT22;2310;49.978;8.742;2023-08-17T05:23:22;21.40;99.90
4596;DHT22;2310;49.978;8.742;2023-08-17T05:27:23;21.40;99.90
4596;DHT22;2310;49.978;8.742;2023-08-17T05:31:25;21.40;99.90
4596;DHT22;2310;49.978;8.742;2023-08-17T05:35:26;21.40;99.90
4596;DHT22;2310;49.978;8.742;2023-08-17T05:39:27;21.60;99.90
4596;DHT22;2310;49.978;8.742;2023-08-17T05:43:28;21.60;99.90
4596;DHT22;2310;49.978;8.742;2023-08-17T05:47:30;21.70;99.90
4596;DHT22;2310;49.978;8.742;2023-08-17T05:51:31;21.60;99.90
4596;DHT22;2310;49.978;8.742;2023-08-17T05:55:32;21.50;99.90
4596;DHT22;2310;49.978;8.742;2023-08-17T05:59:34;21.50;99.90
4596;DHT22;2310;49.978;8.742;2023-08-17T06:03:36;21.50;99.90
4596;DHT22;2310;49.978;8.742;2023-08-17T06:07:38;21.50;99.90
4596;DHT22;2310;49.978;8.742;2023-08-17T06:11:39;21.40;99.90
4596;DHT22;2310;49.978;8.742;2023-08-17T06:15:41;21.50;99.90
4596;DHT22;2310;49.978;8.742;2023-08-17T06:19:42;21.70;99.90
4596;DHT22;2310;49.978;8.742;2023-08-17T06:23:44;21.80;99.90
4596;DHT22;2310;49.978;8.742;2023-08-17T06:27:48;21.90;99.90
4596;DHT22;2310;49.978;8.742;2023-08-17T06:31:48;21.80;99.90
4596;DHT22;2310;49.978;8.742;2023-08-17T06:35:50;21.70;99.90
4596;DHT22;2310;49.978;8.742;2023-08-17T06:39:52;21.70;99.90
4596;DHT22;2310;49.978;8.742;2023-08-17T06:43:55;21.50;99.90
4596;DHT22;2310;49.978;8.742;2023-08-17T06:47:56;21.60;99.90
4596;DHT22;2310;49.978;8.742;2023-08-17T06:51:58;21.60;99.90
4596;DHT22;2310;49.978;8.742;2023-08-17T06:55:59;21.90;99.90
4596;DHT22;2310;49.978;8.742;2023-08-17T07:00:03;22.20;99.90
4596;DHT22;2310;49.978;8.742;2023-08-17T07:04:08;22.50;99.90
4596;DHT22;2310;49.978;8.742;2023-08-17T07:08:10;22.90;99.90
4596;DHT22;2310;49.978;8.742;2023-08-17T07:12:11;22.80;99.90
4596;DHT22;2310;49.978;8.742;2023-08-17T07:16:13;22.50;99.90
4596;DHT22;2310;49.978;8.742;2023-08-17T07:20:14;22.90;99.90
4596;DHT22;2310;49.978;8.742;2023-08-17T07:24:17;22.80;99.90
4596;DHT22;2310;49.978;8.742;2023-08-17T07:28:18;22.80;99.90
4596;DHT22;2310;49.978;8.742;2023-08-17T07:32:20;23.10;99.90
4596;DHT22;2310;49.978;8.742;2023-08-17T07:36:22;23.10;99.90
4596;DHT22;2310;49.978;8.742;2023-08-17T07:40:23;23.00;99.90
4596;DHT22;2310;49.978;8.742;2023-08-17T07:44:24;22.80;99.90
4596;DHT22;2310;49.978;8.742;2023-08-17T07:48:26;23.00;99.90
4596;DHT22;2310;49.978;8.742;2023-08-17T07:52:28;23.20;99.90
4596;DHT22;2310;49.978;8.742;2023-08-17T07:56:30;23.50;99.90
4596;DHT22;2310;49.978;8.742;2023-08-17T08:00:35;23.50;99.90
4596;DHT22;2310;49.978;8.742;2023-08-17T08:04:37;23.60;99.90
4596;DHT22;2310;49.978;8.742;2023-08-17T08:08:40;23.70;99.90
4596;DHT22;2310;49.978;8.742;2023-08-17T08:12:42;23.80;99.90
4596;DHT22;2310;49.978;8.742;2023-08-17T08:16:44;23.40;99.90
4596;DHT22;2310;49.978;8.742;2023-08-17T08:20:45;22.90;99.90
4596;DHT22;2310;49.978;8.742;2023-08-17T08:24:47;22.90;99.90
4596;DHT22;2310;49.978;8.742;2023-08-17T08:28:48;23.10;99.90
4596;DHT22;2310;49.978;8.742;2023-08-17T08:32:49;23.20;99.90
4596;DHT22;2310;49.978;8.742;2023-08-17T08:36:51;23.20;99.90
4596;DHT22;2310;49.978;8.742;2023-08-17T08:40:52;23.10;99.90
4596;DHT22;2310;49.978;8.742;2023-08-17T08:44:54;22.90;99.90
4596;DHT22;2310;49.978;8.742;2023-08-17T08:48:55;22.80;99.90
4596;DHT22;2310;49.978;8.742;2023-08-17T08:53:01;22.80;99.90
4596;DHT22;2310;49.978;8.742;2023-08-17T08:57:08;23.00;99.90
4596;DHT22;2310;49.978;8.742;2023-08-17T09:01:11;23.10;99.90
4596;DHT22;2310;49.978;8.742;2023-08-17T09:05:13;23.10;99.90
4596;DHT22;2310;49.978;8.742;2023-08-17T09:09:15;23.20;99.90
4596;DHT22;2310;49.978;8.742;2023-08-17T09:13:17;23.50;99.90
4596;DHT22;2310;49.978;8.742;2023-08-17T09:17:27;23.70;99.90
4596;DHT22;2310;49.978;8.742;2023-08-17T09:21:31;23.80;99.90
4596;DHT22;2310;49.978;8.742;2023-08-17T09:25:33;23.80;99.90
4596;DHT22;2310;49.978;8.742;2023-08-17T09:29:35;24.10;99.90
4596;DHT22;2310;49.978;8.742;2023-08-17T09:33:38;24.00;99.90
4596;DHT22;2310;49.978;8.742;2023-08-17T09:37:42;24.00;99.90
4596;DHT22;2310;49.978;8.742;2023-08-17T09:41:43;23.90;99.90
4596;DHT22;2310;49.978;8.742;2023-08-17T09:45:45;24.00;99.90
4596;DHT22;2310;49.978;8.742;2023-08-17T09:49:54;24.20;99.90
4596;DHT22;2310;49.978;8.742;2023-08-17T09:53:56;24.60;99.90
4596;DHT22;2310;49.978;8.742;2023-08-17T09:58:00;24.50;99.90
4596;DHT22;2310;49.978;8.742;2023-08-17T10:02:02;24.70;99.90
4596;DHT22;2310;49.978;8.742;2023-08-17T10:06:05;24.70;99.90
4596;DHT22;2310;49.978;8.742;2023-08-17T10:10:10;25.20;99.90
4596;DHT22;2310;49.978;8.742;2023-08-17T10:14:16;25.30;99.90
4596;DHT22;2310;49.978;8.742;2023-08-17T10:22:44;25.50;99.90
4596;DHT22;2310;49.978;8.742;2023-08-17T10:26:46;25.70;99.90
4596;DHT22;2310;49.978;8.742;2023-08-17T10:30:49;26.30;99.90
4596;DHT22;2310;49.978;8.742;2023-08-17T10:34:52;27.00;99.90
4596;DHT22;2310;49.978;8.742;2023-08-17T10:39:20;27.70;99.90
4596;DHT22;2310;49.978;8.742;2023-08-17T10:43:21;27.50;99.90
4596;DHT22;2310;49.978;8.742;2023-08-17T10:47:30;27.10;99.90
4596;DHT22;2310;49.978;8.742;2023-08-17T10:51:34;28.00;99.90
4596;DHT22;2310;49.978;8.742;2023-08-17T10:55:45;28.40;99.90
4596;DHT22;2310;49.978;8.742;2023-08-17T11:00:22;28.40;99.90
4596;DHT22;2310;49.978;8.742;2023-08-17T11:04:32;28.40;99.90
4596;DHT22;2310;49.978;8.742;2023-08-17T11:08:55;28.60;99.90
4596;DHT22;2310;49.978;8.742;2023-08-17T11:12:56;28.70;99.90
4596;DHT22;2310;49.978;8.742;2023-08-17T11:17:02;28.90;99.90
4596;DHT22;2310;49.978;8.742;2023-08-17T11:21:06;29.20;99.90
4596;DHT22;2310;49.978;8.742;2023-08-17T11:25:09;30.10;99.90
4596;DHT22;2310;49.978;8.742;2023-08-17T11:29:10;29.70;99.90
4596;DHT22;2310;49.978;8.742;2023-08-17T11:33:12;29.80;99.90
4596;DHT22;2310;49.978;8.742;2023-08-17T11:37:15;30.20;99.90
4596;DHT22;2310;49.978;8.742;2023-08-17T11:41:17;30.20;99.90
4596;DHT22;2310;49.978;8.742;2023-08-17T11:45:20;29.60;99.90
4596;DHT22;2310;49.978;8.742;2023-08-17T11:49:21;29.30;99.90
4596;DHT22;2310;49.978;8.742;2023-08-17T11:53:24;29.80;99.90
4596;DHT22;2310;49.978;8.742;2023-08-17T11:57:26;29.70;99.90
4596;DHT22;2310;49.978;8.742;2023-08-17T12:01:32;30.00;99.90
4596;DHT22;2310;49.978;8.742;2023-08-17T12:05:33;29.80;99.90
4596;DHT22;2310;49.978;8.742;2023-08-17T12:09:35;29.90;99.90
4596;DHT22;2310;49.978;8.742;2023-08-17T12:13:36;30.20;99.90
4596;DHT22;2310;49.978;8.742;2023-08-17T12:17:46;30.50;99.90
4596;DHT22;2310;49.978;8.742;2023-08-17T12:21:51;30.60;99.90
4596;DHT22;2310;49.978;8.742;2023-08-17T12:25:53;30.60;99.90
4596;DHT22;2310;49.978;8.742;2023-08-17T12:29:55;31.10;99.90
4596;DHT22;2310;49.978;8.742;2023-08-17T12:33:56;31.70;99.90
4596;DHT22;2310;49.978;8.742;2023-08-17T12:37:58;32.00;99.90
4596;DHT22;2310;49.978;8.742;2023-08-17T12:41:59;31.70;99.90
4596;DHT22;2310;49.978;8.742;2023-08-17T12:46:00;32.00;99.00
4596;DHT22;2310;49.978;8.742;2023-08-17T12:50:02;32.00;99.90
4596;DHT22;2310;49.978;8.742;2023-08-17T12:54:04;32.10;99.90
4596;DHT22;2310;49.978;8.742;2023-08-17T12:58:08;32.30;94.00
4596;DHT22;2310;49.978;8.742;2023-08-17T13:02:10;32.40;98.10
4596;DHT22;2310;49.978;8.742;2023-08-17T13:06:11;31.90;94.40
4596;DHT22;2310;49.978;8.742;2023-08-17T13:10:12;31.70;94.00
4596;DHT22;2310;49.978;8.742;2023-08-17T13:14:15;31.00;99.90
4596;DHT22;2310;49.978;8.742;2023-08-17T13:18:17;31.00;99.90
4596;DHT22;2310;49.978;8.742;2023-08-17T13:22:18;31.20;99.90
4596;DHT22;2310;49.978;8.742;2023-08-17T13:26:21;31.20;99.90
4596;DHT22;2310;49.978;8.742;2023-08-17T13:30:23;31.10;99.90
4596;DHT22;2310;49.978;8.742;2023-08-17T13:34:25;30.80;99.90
4596;DHT22;2310;49.978;8.742;2023-08-17T13:38:26;30.70;99.90
4596;DHT22;2310;49.978;8.742;2023-08-17T13:42:27;30.20;99.90
4596;DHT22;2310;49.978;8.742;2023-08-17T13:46:29;30.50;99.90
4596;DHT22;2310;49.978;8.742;2023-08-17T13:50:31;30.30;99.90
4596;DHT22;2310;49.978;8.742;2023-08-17T13:54:32;30.20;99.90
4596;DHT22;2310;49.978;8.742;2023-08-17T13:58:34;30.30;99.90
4596;DHT22;2310;49.978;8.742;2023-08-17T14:02:35;30.50;99.90
4596;DHT22;2310;49.978;8.742;2023-08-17T14:06:38;30.10;99.90
4596;DHT22;2310;49.978;8.742;2023-08-17T14:10:40;30.40;99.90
4596;DHT22;2310;49.978;8.742;2023-08-17T14:14:41;30.40;99.90
4596;DHT22;2310;49.978;8.742;2023-08-17T14:18:42;30.60;99.90
4596;DHT22;2310;49.978;8.742;2023-08-17T14:22:44;30.50;99.90
4596;DHT22;2310;49.978;8.742;2023-08-17T14:26:45;30.40;99.90
4596;DHT22;2310;49.978;8.742;2023-08-17T14:30:46;30.50;99.90
4596;DHT22;2310;49.978;8.742;2023-08-17T14:34:50;30.50;99.90
4596;DHT22;2310;49.978;8.742;2023-08-17T14:38:51;30.50;99.90
4596;DHT22;2310;49.978;8.742;2023-08-17T14:42:52;30.30;99.90
4596;DHT22;2310;49.978;8.742;2023-08-17T14:46:55;30.30;99.90
4596;DHT22;2310;49.978;8.742;2023-08-17T14:50:57;30.00;99.90
4596;DHT22;2310;49.978;8.742;2023-08-17T14:54:58;29.80;99.90
4596;DHT22;2310;49.978;8.742;2023-08-17T14:58:59;30.00;99.90
4596;DHT22;2310;49.978;8.742;2023-08-17T15:03:01;30.20;99.90
4596;DHT22;2310;49.978;8.742;2023-08-17T15:07:03;30.00;99.90
4596;DHT22;2310;49.978;8.742;2023-08-17T15:11:07;30.10;99.90
4596;DHT22;2310;49.978;8.742;2023-08-17T15:15:08;30.00;99.90
4596;DHT22;2310;49.978;8.742;2023-08-17T15:19:10;29.90;99.90
4596;DHT22;2310;49.978;8.742;2023-08-17T15:23:11;29.60;99.90
4596;DHT22;2310;49.978;8.742;2023-08-17T15:27:13;29.40;99.90
4596;DHT22;2310;49.978;8.742;2023-08-17T15:31:17;29.40;99.90
4596;DHT22;2310;49.978;8.742;2023-08-17T15:35:18;29.30;99.90
4596;DHT22;2310;49.978;8.742;2023-08-17T15:39:21;29.30;99.90
4596;DHT22;2310;49.978;8.742;2023-08-17T15:43:22;29.30;99.90
4596;DHT22;2310;49.978;8.742;2023-08-17T15:47:24;29.30;99.90
4596;DHT22;2310;49.978;8.742;2023-08-17T15:51:26;29.40;99.90
4596;DHT22;2310;49.978;8.742;2023-08-17T15:55:28;29.30;99.90
4596;DHT22;2310;49.978;8.742;2023-08-17T15:59:30;29.20;99.90
4596;DHT22;2310;49.978;8.742;2023-08-17T16:03:31;29.50;99.90
4596;DHT22;2310;49.978;8.742;2023-08-17T16:07:34;29.40;99.90
4596;DHT22;2310;49.978;8.742;2023-08-17T16:11:37;29.10;99.90
4596;DHT22;2310;49.978;8.742;2023-08-17T16:15:39;29.10;99.90
4596;DHT22;2310;49.978;8.742;2023-08-17T16:19:43;29.10;99.90
4596;DHT22;2310;49.978;8.742;2023-08-17T16:23:46;29.10;99.90
4596;DHT22;2310;49.978;8.742;2023-08-17T16:27:47;28.80;99.90
4596;DHT22;2310;49.978;8.742;2023-08-17T16:32:01;28.80;99.90
4596;DHT22;2310;49.978;8.742;2023-08-17T16:36:04;28.70;99.90
4596;DHT22;2310;49.978;8.742;2023-08-17T16:40:06;28.50;99.90
4596;DHT22;2310;49.978;8.742;2023-08-17T16:44:08;28.30;99.90
4596;DHT22;2310;49.978;8.742;2023-08-17T16:48:09;28.40;99.90
4596;DHT22;2310;49.978;8.742;2023-08-17T16:52:11;28.30;99.90
4596;DHT22;2310;49.978;8.742;2023-08-17T16:56:12;28.00;99.90
4596;DHT22;2310;49.978;8.742;2023-08-17T17:00:14;28.00;99.90
4596;DHT22;2310;49.978;8.742;2023-08-17T17:04:15;28.10;99.90
4596;DHT22;2310;49.978;8.742;2023-08-17T17:08:18;28.10;99.90
4596;DHT22;2310;49.978;8.742;2023-08-17T17:12:19;28.50;99.90
4596;DHT22;2310;49.978;8.742;2023-08-17T17:16:21;28.60;99.90
4596;DHT22;2310;49.978;8.742;2023-08-17T17:20:23;29.00;99.90
4596;DHT22;2310;49.978;8.742;2023-08-17T17:24:24;29.20;99.90
4596;DHT22;2310;49.978;8.742;2023-08-17T17:28:26;28.90;99.90
4596;DHT22;2310;49.978;8.742;2023-08-17T17:32:27;29.10;99.90
4596;DHT22;2310;49.978;8.742;2023-08-17T17:36:29;29.00;99.90
4596;DHT22;2310;49.978;8.742;2023-08-17T17:40:30;28.60;99.90
4596;DHT22;2310;49.978;8.742;2023-08-17T17:44:32;28.50;99.90
4596;DHT22;2310;49.978;8.742;2023-08-17T17:48:33;28.50;99.90
4596;DHT22;2310;49.978;8.742;2023-08-17T17:52:35;28.50;99.90
4596;DHT22;2310;49.978;8.742;2023-08-17T17:56:38;28.40;99.90
4596;DHT22;2310;49.978;8.742;2023-08-17T18:00:39;28.10;99.90
4596;DHT22;2310;49.978;8.742;2023-08-17T18:04:41;28.20;99.90
4596;DHT22;2310;49.978;8.742;2023-08-17T18:08:42;28.10;99.90
4596;DHT22;2310;49.978;8.742;2023-08-17T18:12:44;28.00;99.90
4596;DHT22;2310;49.978;8.742;2023-08-17T18:16:45;28.10;99.90
4596;DHT22;2310;49.978;8.742;2023-08-17T18:20:46;27.90;99.90
4596;DHT22;2310;49.978;8.742;2023-08-17T18:24:48;27.90;99.90
4596;DHT22;2310;49.978;8.742;2023-08-17T18:28:51;27.70;99.90
4596;DHT22;2310;49.978;8.742;2023-08-17T18:32:52;27.60;99.90
4596;DHT22;2310;49.978;8.742;2023-08-17T18:36:54;27.50;99.90
4596;DHT22;2310;49.978;8.742;2023-08-17T18:41:05;27.50;99.90
4596;DHT22;2310;49.978;8.742;2023-08-17T18:45:00;27.30;99.90
4596;DHT22;2310;49.978;8.742;2023-08-17T18:49:01;27.20;99.90
4596;DHT22;2310;49.978;8.742;2023-08-17T18:53:03;27.00;99.90
4596;DHT22;2310;49.978;8.742;2023-08-17T18:57:04;26.90;99.90
4596;DHT22;2310;49.978;8.742;2023-08-17T19:01:06;26.90;99.90
4596;DHT22;2310;49.978;8.742;2023-08-17T19:05:08;26.80;99.90
4596;DHT22;2310;49.978;8.742;2023-08-17T19:09:10;26.60;99.90
4596;DHT22;2310;49.978;8.742;2023-08-17T19:13:11;26.50;99.90
4596;DHT22;2310;49.978;8.742;2023-08-17T19:17:12;26.30;99.90
4596;DHT22;2310;49.978;8.742;2023-08-17T19:21:14;26.30;99.90
4596;DHT22;2310;49.978;8.742;2023-08-17T19:25:15;26.20;99.90
4596;DHT22;2310;49.978;8.742;2023-08-17T19:29:17;26.20;99.90
4596;DHT22;2310;49.978;8.742;2023-08-17T19:33:19;26.10;99.90
4596;DHT22;2310;49.978;8.742;2023-08-17T19:37:20;26.10;99.90
4596;DHT22;2310;49.978;8.742;2023-08-17T19:41:22;26.00;99.90
4596;DHT22;2310;49.978;8.742;2023-08-17T19:45:24;26.00;99.90
4596;DHT22;2310;49.978;8.742;2023-08-17T19:49:26;26.00;99.90
4596;DHT22;2310;49.978;8.742;2023-08-17T19:53:27;26.00;99.90
4596;DHT22;2310;49.978;8.742;2023-08-17T19:57:29;25.90;99.90
4596;DHT22;2310;49.978;8.742;2023-08-17T20:01:31;25.80;99.90
4596;DHT22;2310;49.978;8.742;2023-08-17T20:05:34;25.90;99.90
4596;DHT22;2310;49.978;8.742;2023-08-17T20:09:36;25.60;99.90
4596;DHT22;2310;49.978;8.742;2023-08-17T20:13:37;25.30;99.90
4596;DHT22;2310;49.978;8.742;2023-08-17T20:17:39;25.20;99.90
4596;DHT22;2310;49.978;8.742;2023-08-17T20:21:40;25.30;99.90
4596;DHT22;2310;49.978;8.742;2023-08-17T20:25:44;25.20;99.90
4596;DHT22;2310;49.978;8.742;2023-08-17T20:29:46;25.20;99.90
4596;DHT22;2310;49.978;8.742;2023-08-17T20:33:48;25.30;99.90
4596;DHT22;2310;49.978;8.742;2023-08-17T20:37:50;25.50;99.90
4596;DHT22;2310;49.978;8.742;2023-08-17T20:41:52;25.60;99.90
4596;DHT22;2310;49.978;8.742;2023-08-17T20:45:56;25.60;99.90
4596;DHT22;2310;49.978;8.742;2023-08-17T20:49:58;25.40;99.90
4596;DHT22;2310;49.978;8.742;2023-08-17T20:53:59;25.40;99.90
4596;DHT22;2310;49.978;8.742;2023-08-17T20:58:01;25.30;99.90
4596;DHT22;2310;49.978;8.742;2023-08-17T21:02:02;25.20;99.90
4596;DHT22;2310;49.978;8.742;2023-08-17T21:06:05;25.20;99.90
4596;DHT22;2310;49.978;8.742;2023-08-17T21:10:07;25.30;99.90
4596;DHT22;2310;49.978;8.742;2023-08-17T21:14:08;25.20;99.90
4596;DHT22;2310;49.978;8.742;2023-08-17T21:18:09;25.30;99.90
4596;DHT22;2310;49.978;8.742;2023-08-17T21:22:11;25.30;99.90
4596;DHT22;2310;49.978;8.742;2023-08-17T21:26:12;25.30;99.90
4596;DHT22;2310;49.978;8.742;2023-08-17T21:30:14;25.30;99.90
4596;DHT22;2310;49.978;8.742;2023-08-17T21:34:16;25.20;99.90
4596;DHT22;2310;49.978;8.742;2023-08-17T21:38:19;25.20;99.90
4596;DHT22;2310;49.978;8.742;2023-08-17T21:42:21;25.10;99.90
4596;DHT22;2310;49.978;8.742;2023-08-17T21:46:23;25.10;99.90
4596;DHT22;2310;49.978;8.742;2023-08-17T21:50:25;25.00;99.90
4596;DHT22;2310;49.978;8.742;2023-08-17T21:54:26;25.00;99.90
4596;DHT22;2310;49.978;8.742;2023-08-17T21:58:28;25.00;99.90
4596;DHT22;2310;49.978;8.742;2023-08-17T22:02:29;25.00;99.90
4596;DHT22;2310;49.978;8.742;2023-08-17T22:06:31;24.90;99.90
4596;DHT22;2310;49.978;8.742;2023-08-17T22:10:32;24.80;99.90
4596;DHT22;2310;49.978;8.742;2023-08-17T22:14:33;24.50;99.90
4596;DHT22;2310;49.978;8.742;2023-08-17T22:18:35;24.50;99.90
4596;DHT22;2310;49.978;8.742;2023-08-17T22:22:36;24.30;99.90
4596;DHT22;2310;49.978;8.742;2023-08-17T22:26:37;24.20;99.90
4596;DHT22;2310;49.978;8.742;2023-08-17T22:30:38;24.10;99.90
4596;DHT22;2310;49.978;8.742;2023-08-17T22:34:40;23.90;99.90
4596;DHT22;2310;49.978;8.742;2023-08-17T22:38:41;23.90;99.90
4596;DHT22;2310;49.978;8.742;2023-08-17T22:42:43;23.90;99.90
4596;DHT22;2310;49.978;8.742;2023-08-17T22:46:44;23.90;99.90
4596;DHT22;2310;49.978;8.742;2023-08-17T22:50:45;23.80;99.90
4596;DHT22;2310;49.978;8.742;2023-08-17T22:54:48;23.80;99.90
4596;DHT22;2310;49.978;8.742;2023-08-17T22:58:50;23.80;99.90
4596;DHT22;2310;49.978;8.742;2023-08-17T23:02:51;23.70;99.90
4596;DHT22;2310;49.978;8.742;2023-08-17T23:06:52;23.80;99.90
4596;DHT22;2310;49.978;8.742;2023-08-17T23:10:58;23.80;99.90
4596;DHT22;2310;49.978;8.742;2023-08-17T23:15:00;23.80;99.90
4596;DHT22;2310;49.978;8.742;2023-08-17T23:19:01;23.80;99.90
4596;DHT22;2310;49.978;8.742;2023-08-17T23:23:03;23.70;99.90
4596;DHT22;2310;49.978;8.742;2023-08-17T23:27:05;23.60;99.90
4596;DHT22;2310;49.978;8.742;2023-08-17T23:31:09;23.30;99.90
4596;DHT22;2310;49.978;8.742;2023-08-17T23:35:10;23.20;99.90
4596;DHT22;2310;49.978;8.742;2023-08-17T23:39:11;23.10;99.90
4596;DHT22;2310;49.978;8.742;2023-08-17T23:43:13;23.00;99.90
4596;DHT22;2310;49.978;8.742;2023-08-17T23:47:14;22.90;99.90
4596;DHT22;2310;49.978;8.742;2023-08-17T23:51:16;22.90;99.90
4596;DHT22;2310;49.978;8.742;2023-08-17T23:55:17;22.80;99.90
4596;DHT22;2310;49.978;8.742;2023-08-17T23:59:18;22.90;99.90
